createdAt,value
2023-02-25T00:00:34.393Z,0.60
2023-02-25T00:03:01.872Z,0.60
2023-02-25T00:05:31.690Z,0.50
2023-02-25T00:07:59.582Z,0.50
2023-02-25T00:10:26.487Z,0.50
2023-02-25T00:12:53.397Z,0.50
2023-02-25T00:15:20.387Z,0.50
2023-02-25T00:17:49.818Z,0.50
2023-02-25T00:20:20.807Z,0.50
2023-02-25T00:22:47.814Z,0.50
2023-02-25T00:25:16.872Z,0.50
2023-02-25T00:27:44.274Z,0.50
2023-02-25T00:30:12.623Z,0.50
2023-02-25T00:32:39.768Z,0.50
2023-02-25T00:35:07.268Z,0.50
2023-02-25T00:37:34.162Z,0.50
2023-02-25T00:40:00.976Z,0.50
2023-02-25T00:42:27.828Z,0.50
2023-02-25T00:44:54.607Z,0.50
2023-02-25T00:47:22.924Z,0.50
2023-02-25T00:49:50.697Z,0.50
2023-02-25T00:52:17.584Z,0.50
2023-02-25T00:54:44.655Z,0.50
2023-02-25T00:57:11.475Z,0.50
2023-02-25T00:59:38.406Z,0.50
2023-02-25T01:02:05.505Z,0.50
2023-02-25T01:04:32.638Z,0.50
2023-02-25T01:07:00.695Z,0.50
2023-02-25T01:09:28.153Z,0.50
2023-02-25T01:11:56.949Z,0.50
2023-02-25T01:14:25.786Z,0.50
2023-02-25T01:16:53.610Z,0.50
2023-02-25T01:19:25.952Z,0.50
2023-02-25T01:21:55.852Z,0.50
2023-02-25T01:24:27.210Z,0.50
2023-02-25T01:26:57.815Z,0.50
2023-02-25T01:29:28.403Z,0.50
2023-02-25T01:31:57.707Z,0.50
2023-02-25T01:34:24.871Z,0.40
2023-02-25T01:36:51.930Z,0.50
2023-02-25T01:39:20.600Z,0.50
2023-02-25T01:41:48.873Z,0.50
2023-02-25T01:44:28.691Z,0.50
2023-02-25T01:46:55.937Z,0.50
2023-02-25T01:49:41.573Z,0.50
2023-02-25T01:52:25.379Z,0.50
2023-02-25T01:54:57.356Z,0.50
2023-02-25T01:57:25.302Z,0.50
2023-02-25T01:59:54.052Z,0.60
2023-02-25T02:02:23.390Z,0.60
2023-02-25T02:04:53.081Z,0.60
2023-02-25T02:07:21.825Z,0.60
2023-02-25T02:09:58.514Z,0.60
2023-02-25T02:12:35.918Z,0.60
2023-02-25T02:15:09.283Z,0.60
2023-02-25T02:17:46.181Z,0.60
2023-02-25T02:20:27.156Z,0.60
2023-02-25T02:23:14.793Z,0.60
2023-02-25T02:25:55.303Z,0.60
2023-02-25T02:28:22.010Z,0.60
2023-02-25T02:31:15.072Z,0.60
2023-02-25T02:34:23.006Z,0.60
2023-02-25T02:37:29.524Z,0.60
2023-02-25T02:40:19.751Z,0.60
2023-02-25T02:42:58.631Z,0.60
2023-02-25T02:45:56.492Z,0.70
2023-02-25T02:48:39.530Z,0.60
2023-02-25T02:51:14.280Z,0.60
2023-02-25T02:53:47.103Z,0.70
2023-02-25T02:56:17.604Z,0.70
2023-02-25T02:58:53.861Z,0.70
2023-02-25T03:01:29.804Z,0.70
2023-02-25T03:04:04.552Z,0.60
2023-02-25T03:06:39.578Z,0.60
2023-02-25T03:09:12.999Z,0.60
2023-02-25T03:11:40.138Z,0.60
2023-02-25T03:14:09.105Z,0.60
2023-02-25T03:16:40.641Z,0.60
2023-02-25T03:19:29.851Z,0.60
2023-02-25T03:22:09.978Z,0.60
2023-02-25T03:24:50.070Z,0.50
2023-02-25T03:27:34.318Z,0.50
2023-02-25T03:30:24.811Z,0.50
2023-02-25T03:32:59.995Z,0.50
2023-02-25T03:35:28.144Z,0.60
2023-02-25T03:38:02.111Z,0.60
2023-02-25T03:40:31.507Z,0.60
2023-02-25T03:43:08.764Z,0.50
2023-02-25T03:45:38.679Z,0.50
2023-02-25T03:48:07.667Z,0.50
2023-02-25T03:50:40.568Z,0.50
2023-02-25T03:53:09.180Z,0.40
2023-02-25T03:56:05.264Z,0.40
2023-02-25T03:58:38.351Z,0.40
2023-02-25T04:01:13.818Z,0.40
2023-02-25T04:03:42.637Z,0.40
2023-02-25T04:06:12.530Z,0.30
2023-02-25T04:08:40.217Z,0.30
2023-02-25T04:11:07.219Z,0.40
2023-02-25T04:13:34.141Z,0.30
2023-02-25T04:16:01.040Z,0.30
2023-02-25T04:18:28.322Z,0.30
2023-02-25T04:20:55.288Z,0.20
2023-02-25T04:23:22.179Z,0.20
2023-02-25T04:25:49.016Z,0.20
2023-02-25T04:28:16.164Z,0.20
2023-02-25T04:30:43.284Z,0.20
2023-02-25T04:33:12.024Z,0.20
2023-02-25T04:35:39.379Z,0.10
2023-02-25T04:38:08.975Z,0.10
2023-02-25T04:40:36.630Z,0.20
2023-02-25T04:43:03.537Z,0.10
2023-02-25T04:45:30.416Z,0.10
2023-02-25T04:47:58.008Z,0.10
2023-02-25T04:50:25.241Z,0.10
2023-02-25T04:52:52.139Z,0.10
2023-02-25T04:55:19.905Z,0.10
2023-02-25T04:57:46.844Z,0.20
2023-02-25T05:00:24.150Z,0.10
2023-02-25T05:02:51.636Z,0.10
2023-02-25T05:05:18.894Z,0.10
2023-02-25T05:07:45.752Z,0.10
2023-02-25T05:10:14.750Z,0.10
2023-02-25T05:12:41.936Z,0.10
2023-02-25T05:15:09.432Z,0.10
2023-02-25T05:17:36.391Z,0.20
2023-02-25T05:20:07.483Z,0.10
2023-02-25T05:22:34.767Z,0.10
2023-02-25T05:25:01.608Z,0.10
2023-02-25T05:27:28.406Z,0.10
2023-02-25T05:29:56.085Z,0.10
2023-02-25T05:32:23.108Z,0.10
2023-02-25T05:34:50.093Z,0.00
2023-02-25T05:37:17.001Z,0.00
2023-02-25T05:39:43.988Z,0.00
2023-02-25T05:42:11.645Z,0.00
2023-02-25T05:44:38.499Z,0.00
2023-02-25T05:47:05.429Z,0.00
2023-02-25T05:49:32.210Z,0.00
2023-02-25T05:51:59.113Z,0.00
2023-02-25T05:54:26.048Z,0.00
2023-02-25T05:56:53.193Z,0.00
2023-02-25T05:59:20.248Z,0.10
2023-02-25T06:01:47.187Z,0.10
2023-02-25T06:04:14.033Z,0.20
2023-02-25T06:06:42.202Z,0.20
2023-02-25T06:09:10.354Z,0.20
2023-02-25T06:11:37.391Z,0.30
2023-02-25T06:14:04.229Z,0.30
2023-02-25T06:16:32.368Z,0.30
2023-02-25T06:19:01.086Z,0.30
2023-02-25T06:21:28.170Z,0.40
2023-02-25T06:23:55.493Z,0.40
2023-02-25T06:26:23.333Z,0.40
2023-02-25T06:28:50.475Z,0.40
2023-02-25T06:31:19.596Z,0.40
2023-02-25T06:33:46.830Z,0.40
2023-02-25T06:36:14.492Z,0.50
2023-02-25T06:38:45.302Z,0.50
2023-02-25T06:41:17.751Z,0.50
2023-02-25T06:43:51.964Z,0.50
2023-02-25T06:46:22.191Z,0.50
2023-02-25T06:48:49.146Z,0.50
2023-02-25T06:51:16.190Z,0.50
2023-02-25T06:53:44.867Z,0.50
2023-02-25T06:56:14.114Z,0.50
2023-02-25T06:58:41.453Z,0.60
2023-02-25T07:01:13.910Z,0.60
2023-02-25T07:03:43.505Z,0.60
2023-02-25T07:06:11.593Z,0.60
2023-02-25T07:08:38.378Z,0.60
2023-02-25T07:11:14.588Z,0.60
2023-02-25T07:13:43.304Z,0.70
2023-02-25T07:16:12.066Z,0.70
2023-02-25T07:18:39.437Z,0.70
2023-02-25T07:21:06.682Z,0.70
2023-02-25T07:23:33.769Z,0.70
2023-02-25T07:26:08.424Z,0.80
2023-02-25T07:28:36.254Z,0.80
2023-02-25T07:31:08.900Z,0.80
2023-02-25T07:33:35.915Z,0.80
2023-02-25T07:36:02.741Z,0.80
2023-02-25T07:38:29.533Z,0.90
2023-02-25T07:40:56.635Z,0.90
2023-02-25T07:43:24.022Z,1.00
2023-02-25T07:45:50.840Z,1.00
2023-02-25T07:48:17.760Z,1.00
2023-02-25T07:50:44.773Z,1.00
2023-02-25T07:53:11.620Z,1.00
2023-02-25T07:55:38.469Z,1.10
2023-02-25T07:58:07.274Z,1.00
2023-02-25T08:00:34.470Z,1.00
2023-02-25T08:03:01.359Z,1.00
2023-02-25T08:05:28.161Z,1.00
2023-02-25T08:07:54.970Z,1.10
2023-02-25T08:10:21.852Z,1.10
2023-02-25T08:12:48.677Z,1.20
2023-02-25T08:15:15.597Z,1.20
2023-02-25T08:17:42.388Z,1.30
2023-02-25T08:20:10.144Z,1.30
2023-02-25T08:22:37.339Z,1.30
2023-02-25T08:25:05.112Z,1.30
2023-02-25T08:27:32.243Z,1.30
2023-02-25T08:29:59.012Z,1.30
2023-02-25T08:32:27.456Z,1.20
2023-02-25T08:34:56.617Z,1.20
2023-02-25T08:37:25.640Z,1.20
2023-02-25T08:39:55.967Z,1.30
2023-02-25T08:42:24.053Z,1.20
2023-02-25T08:44:51.201Z,1.30
2023-02-25T08:47:18.351Z,1.20
2023-02-25T08:49:46.511Z,1.20
2023-02-25T08:52:14.032Z,1.20
2023-02-25T08:54:41.438Z,1.20
2023-02-25T08:57:08.376Z,1.10
2023-02-25T08:59:38.221Z,1.10
2023-02-25T09:02:07.760Z,1.10
2023-02-25T09:04:35.091Z,1.00
2023-02-25T09:07:02.752Z,1.00
2023-02-25T09:09:29.772Z,1.10
2023-02-25T09:11:56.859Z,1.00
2023-02-25T09:14:23.711Z,1.00
2023-02-25T09:16:50.962Z,1.10
2023-02-25T09:19:18.436Z,1.10
2023-02-25T09:21:49.717Z,1.10
2023-02-25T09:24:17.708Z,1.10
2023-02-25T09:26:44.624Z,1.10
2023-02-25T09:29:11.429Z,1.20
2023-02-25T09:31:39.777Z,1.10
2023-02-25T09:34:13.610Z,1.20
2023-02-25T09:36:40.452Z,1.20
2023-02-25T09:39:10.598Z,1.10
2023-02-25T09:42:03.513Z,1.10
2023-02-25T09:44:38.751Z,1.00
2023-02-25T09:47:21.437Z,1.00
2023-02-25T09:50:21.645Z,0.90
2023-02-25T09:52:54.042Z,0.80
2023-02-25T09:55:36.059Z,0.70
2023-02-25T09:58:14.756Z,0.70
2023-02-25T10:01:06.629Z,0.60
2023-02-25T10:03:48.337Z,0.70
2023-02-25T10:06:27.695Z,0.70
2023-02-25T10:09:02.988Z,0.80
2023-02-25T10:11:53.831Z,1.00
2023-02-25T10:15:02.409Z,1.10
2023-02-25T10:17:43.330Z,1.10
2023-02-25T10:20:44.077Z,1.00
2023-02-25T10:23:31.121Z,0.90
2023-02-25T10:26:01.056Z,0.80
2023-02-25T10:28:29.693Z,0.80
2023-02-25T10:31:05.526Z,0.80
2023-02-25T10:33:37.019Z,0.80
2023-02-25T10:36:03.963Z,0.90
2023-02-25T10:38:30.879Z,1.00
2023-02-25T10:40:59.338Z,1.10
2023-02-25T10:43:27.175Z,1.20
2023-02-25T10:46:18.788Z,1.30
2023-02-25T10:48:56.421Z,1.40
2023-02-25T10:51:25.860Z,1.50
2023-02-25T10:53:52.876Z,1.50
2023-02-25T10:56:21.802Z,1.50
2023-02-25T10:59:24.011Z,1.50
2023-02-25T11:01:51.383Z,1.50
2023-02-25T11:04:22.682Z,1.50
2023-02-25T11:06:50.012Z,1.60
2023-02-25T11:09:19.641Z,1.80
2023-02-25T11:12:19.841Z,1.80
2023-02-25T11:14:46.774Z,1.90
2023-02-25T11:17:20.347Z,1.90
2023-02-25T11:19:48.117Z,1.80
2023-02-25T11:22:24.087Z,1.70
2023-02-25T11:25:14.267Z,1.60
2023-02-25T11:27:44.006Z,1.50
2023-02-25T11:30:13.810Z,1.40
2023-02-25T11:32:47.055Z,1.40
2023-02-25T11:35:19.971Z,1.50
2023-02-25T11:37:50.605Z,1.50
2023-02-25T11:40:31.198Z,1.70
2023-02-25T11:43:01.987Z,1.80
2023-02-25T11:46:01.269Z,1.90
2023-02-25T11:48:35.357Z,1.90
2023-02-25T11:51:17.372Z,1.90
2023-02-25T11:54:03.437Z,1.90
2023-02-25T11:56:39.810Z,1.90
2023-02-25T11:59:29.336Z,1.80
2023-02-25T12:02:01.870Z,1.70
2023-02-25T12:04:57.106Z,1.50
2023-02-25T12:07:47.857Z,1.40
2023-02-25T12:10:37.117Z,1.30
2023-02-25T12:13:11.134Z,1.20
2023-02-25T12:16:15.409Z,1.30
2023-02-25T12:18:54.201Z,1.30
2023-02-25T12:21:39.989Z,1.30
2023-02-25T12:24:19.208Z,1.30
2023-02-25T12:26:58.541Z,1.30
2023-02-25T12:29:53.032Z,1.30
2023-02-25T12:32:42.497Z,1.30
2023-02-25T12:36:03.789Z,1.30
2023-02-25T12:38:55.357Z,1.10
2023-02-25T12:41:33.952Z,1.10
2023-02-25T12:44:18.881Z,1.10
2023-02-25T12:46:48.390Z,1.10
2023-02-25T12:49:29.945Z,1.20
2023-02-25T12:52:13.001Z,1.10
2023-02-25T12:55:07.930Z,1.10
2023-02-25T12:58:09.026Z,1.00
2023-02-25T13:01:19.540Z,1.00
2023-02-25T13:04:09.399Z,1.00
2023-02-25T13:07:09.863Z,0.90
2023-02-25T13:09:46.728Z,0.90
2023-02-25T13:12:32.338Z,0.90
2023-02-25T13:15:25.488Z,0.90
2023-02-25T13:18:16.663Z,1.20
2023-02-25T13:21:28.127Z,1.30
2023-02-25T13:23:56.571Z,1.40
2023-02-25T13:26:47.584Z,1.40
2023-02-25T13:29:38.659Z,1.50
2023-02-25T13:32:24.458Z,1.40
2023-02-25T13:35:23.303Z,1.40
2023-02-25T13:38:08.607Z,1.40
2023-02-25T13:40:41.421Z,1.40
2023-02-25T13:43:38.545Z,1.40
2023-02-25T13:46:41.040Z,1.40
2023-02-25T13:49:49.024Z,1.40
2023-02-25T13:52:24.539Z,1.40
2023-02-25T13:55:06.378Z,1.40
2023-02-25T13:57:57.779Z,1.40
2023-02-25T14:00:49.691Z,1.40
2023-02-25T14:03:25.380Z,1.40
2023-02-25T14:06:23.058Z,1.40
2023-02-25T14:08:56.956Z,1.40
2023-02-25T14:12:11.348Z,1.40
2023-02-25T14:15:03.721Z,1.40
2023-02-25T14:17:42.524Z,1.30
2023-02-25T14:20:28.506Z,1.30
2023-02-25T14:23:00.958Z,1.30
2023-02-25T14:25:49.239Z,1.20
2023-02-25T14:28:42.661Z,1.20
2023-02-25T14:31:38.162Z,1.10
2023-02-25T14:34:29.971Z,1.00
2023-02-25T14:37:40.599Z,1.00
2023-02-25T14:40:13.318Z,1.00
2023-02-25T14:43:12.600Z,0.90
2023-02-25T14:46:01.726Z,0.90
2023-02-25T14:48:40.993Z,0.90
2023-02-25T14:51:32.391Z,0.90
2023-02-25T14:54:37.482Z,0.90
2023-02-25T14:57:20.338Z,1.00
2023-02-25T15:00:23.557Z,0.90
2023-02-25T15:03:12.111Z,0.90
2023-02-25T15:06:13.533Z,0.80
2023-02-25T15:09:22.546Z,0.80
2023-02-25T15:12:01.286Z,0.80
2023-02-25T15:14:51.353Z,0.80
2023-02-25T15:17:28.478Z,0.70
2023-02-25T15:20:16.493Z,0.70
2023-02-25T15:23:01.962Z,0.70
2023-02-25T15:25:44.726Z,0.70
2023-02-25T15:28:35.620Z,0.70
2023-02-25T15:31:02.518Z,0.70
2023-02-25T15:33:40.458Z,0.70
2023-02-25T15:36:16.415Z,0.60
2023-02-25T15:38:50.657Z,0.60
2023-02-25T15:41:26.826Z,0.60
2023-02-25T15:43:54.397Z,0.70
2023-02-25T15:46:36.644Z,0.70
2023-02-25T15:49:17.654Z,0.80
2023-02-25T15:51:51.451Z,0.80
2023-02-25T15:54:30.720Z,0.80
2023-02-25T15:57:13.085Z,0.80
2023-02-25T15:59:44.697Z,0.80
2023-02-25T16:02:27.002Z,0.80
2023-02-25T16:05:00.362Z,0.80
2023-02-25T16:07:34.934Z,0.70
2023-02-25T16:10:09.179Z,0.60
2023-02-25T16:12:38.669Z,0.50
2023-02-25T16:15:06.327Z,0.50
2023-02-25T16:17:36.012Z,0.50
2023-02-25T16:20:23.092Z,0.40
2023-02-25T16:22:56.346Z,0.40
2023-02-25T16:25:46.546Z,0.50
2023-02-25T16:28:41.249Z,0.50
2023-02-25T16:31:23.420Z,0.50
2023-02-25T16:34:06.331Z,0.40
2023-02-25T16:37:11.644Z,0.40
2023-02-25T16:39:38.964Z,0.40
2023-02-25T16:42:11.618Z,0.50
2023-02-25T16:44:40.958Z,0.60
2023-02-25T16:47:29.840Z,0.70
2023-02-25T16:49:59.315Z,0.70
2023-02-25T16:52:47.885Z,0.70
2023-02-25T16:55:35.528Z,0.70
2023-02-25T16:58:23.388Z,0.70
2023-02-25T17:01:03.793Z,0.70
2023-02-25T17:03:40.245Z,0.70
2023-02-25T17:06:16.509Z,0.70
2023-02-25T17:08:48.931Z,0.70
2023-02-25T17:11:22.567Z,0.70
2023-02-25T17:13:51.936Z,0.70
2023-02-25T17:16:43.510Z,0.70
2023-02-25T17:19:12.275Z,0.70
2023-02-25T17:21:46.428Z,0.70
2023-02-25T17:24:17.293Z,0.70
2023-02-25T17:26:47.418Z,0.70
2023-02-25T17:29:16.213Z,0.70
2023-02-25T17:31:54.941Z,0.80
2023-02-25T17:34:35.689Z,0.80
2023-02-25T17:37:06.134Z,0.80
2023-02-25T17:39:33.430Z,0.80
2023-02-25T17:42:00.371Z,0.80
2023-02-25T17:44:36.551Z,0.80
2023-02-25T17:47:04.493Z,0.90
2023-02-25T17:49:36.201Z,0.90
2023-02-25T17:52:15.958Z,0.70
2023-02-25T17:54:47.832Z,0.50
2023-02-25T17:57:19.176Z,0.40
2023-02-25T17:59:52.336Z,0.40
2023-02-25T18:02:41.032Z,0.50
2023-02-25T18:05:28.447Z,0.50
2023-02-25T18:07:59.317Z,0.30
2023-02-25T18:10:26.092Z,0.30
2023-02-25T18:12:55.267Z,0.30
2023-02-25T18:15:36.237Z,0.20
2023-02-25T18:18:05.825Z,0.20
2023-02-25T18:20:36.963Z,0.10
2023-02-25T18:23:25.698Z,0.20
2023-02-25T18:26:13.635Z,0.10
2023-02-25T18:28:40.638Z,0.10
2023-02-25T18:31:08.371Z,0.10
2023-02-25T18:33:35.477Z,0.20
2023-02-25T18:36:06.033Z,0.30
2023-02-25T18:38:33.140Z,0.50
2023-02-25T18:41:00.027Z,0.60
2023-02-25T18:43:30.662Z,0.60
2023-02-25T18:45:57.821Z,0.60
2023-02-25T18:48:24.867Z,0.70
2023-02-25T18:50:51.783Z,0.70
2023-02-25T18:53:23.231Z,0.70
2023-02-25T18:55:51.491Z,0.80
2023-02-25T18:58:19.693Z,0.80
2023-02-25T19:00:49.345Z,0.70
2023-02-25T19:03:22.472Z,0.80
2023-02-25T19:05:49.315Z,0.80
2023-02-25T19:08:17.291Z,0.80
2023-02-25T19:10:45.154Z,0.80
2023-02-25T19:13:27.406Z,0.80
2023-02-25T19:15:54.290Z,0.80
2023-02-25T19:18:21.121Z,0.80
2023-02-25T19:20:48.138Z,0.80
2023-02-25T19:23:17.049Z,0.80
2023-02-25T19:25:44.844Z,0.80
2023-02-25T19:28:11.841Z,0.80
2023-02-25T19:30:41.542Z,0.80
2023-02-25T19:33:10.310Z,0.80
2023-02-25T19:35:39.257Z,0.80
2023-02-25T19:38:08.430Z,0.80
2023-02-25T19:40:36.821Z,0.70
2023-02-25T19:43:04.930Z,0.70
2023-02-25T19:45:32.628Z,0.70
2023-02-25T19:48:00.770Z,0.70
2023-02-25T19:50:28.127Z,0.70
2023-02-25T19:52:55.731Z,0.80
2023-02-25T19:55:23.005Z,0.80
2023-02-25T19:57:49.994Z,0.70
2023-02-25T20:00:20.367Z,0.70
2023-02-25T20:02:47.162Z,0.70
2023-02-25T20:05:14.741Z,0.70
2023-02-25T20:07:42.222Z,0.70
2023-02-25T20:10:11.055Z,0.60
2023-02-25T20:12:39.577Z,0.60
2023-02-25T20:15:08.314Z,0.60
2023-02-25T20:17:40.235Z,0.60
2023-02-25T20:20:11.131Z,0.60
2023-02-25T20:22:39.204Z,0.60
2023-02-25T20:25:08.028Z,0.60
2023-02-25T20:27:37.081Z,0.50
2023-02-25T20:30:06.692Z,0.50
2023-02-25T20:32:34.212Z,0.50
2023-02-25T20:35:01.793Z,0.50
2023-02-25T20:37:38.666Z,0.40
2023-02-25T20:40:11.929Z,0.40
2023-02-25T20:42:38.921Z,0.50
2023-02-25T20:45:06.477Z,0.50
2023-02-25T20:47:35.174Z,0.50
2023-02-25T20:50:02.685Z,0.50
2023-02-25T20:52:29.745Z,0.50
2023-02-25T20:54:57.976Z,0.50
2023-02-25T20:57:26.691Z,0.50
2023-02-25T20:59:54.209Z,0.50
2023-02-25T21:02:21.442Z,0.50
2023-02-25T21:04:49.031Z,0.50
2023-02-25T21:07:16.344Z,0.50
2023-02-25T21:09:43.225Z,0.50
2023-02-25T21:12:10.278Z,0.50
2023-02-25T21:14:37.316Z,0.50
2023-02-25T21:17:09.468Z,0.50
2023-02-25T21:19:38.736Z,0.50
2023-02-25T21:22:06.897Z,0.50
2023-02-25T21:24:34.650Z,0.50
2023-02-25T21:27:02.249Z,0.50
2023-02-25T21:29:29.472Z,0.50
2023-02-25T21:31:56.698Z,0.50
2023-02-25T21:34:23.606Z,0.50
2023-02-25T21:36:50.499Z,0.50
2023-02-25T21:39:17.338Z,0.50
2023-02-25T21:41:45.000Z,0.50
2023-02-25T21:44:12.406Z,0.50
2023-02-25T21:46:39.897Z,0.50
2023-02-25T21:49:07.015Z,0.50
2023-02-25T21:51:34.083Z,0.50
2023-02-25T21:54:02.021Z,0.50
2023-02-25T21:56:30.141Z,0.50
2023-02-25T21:58:59.831Z,0.50
2023-02-25T22:01:30.026Z,0.50
2023-02-25T22:03:57.700Z,0.50
2023-02-25T22:06:26.129Z,0.50
2023-02-25T22:08:54.235Z,0.50
2023-02-25T22:11:26.967Z,0.50
2023-02-25T22:13:54.399Z,0.50
2023-02-25T22:16:23.145Z,0.50
2023-02-25T22:18:51.209Z,0.50
2023-02-25T22:21:21.274Z,0.50
2023-02-25T22:23:50.060Z,0.50
2023-02-25T22:26:20.279Z,0.50
2023-02-25T22:28:47.327Z,0.50
2023-02-25T22:31:18.784Z,0.50
2023-02-25T22:33:45.857Z,0.50
2023-02-25T22:36:14.033Z,0.50
2023-02-25T22:38:42.118Z,0.50
2023-02-25T22:41:25.360Z,0.50
2023-02-25T22:43:52.431Z,0.50
2023-02-25T22:46:23.008Z,0.50
2023-02-25T22:48:50.942Z,0.50
2023-02-25T22:51:24.889Z,0.50
2023-02-25T22:53:52.216Z,0.50
2023-02-25T22:56:19.263Z,0.50
2023-02-25T22:58:46.520Z,0.50
2023-02-25T23:01:15.659Z,0.50
2023-02-25T23:03:43.938Z,0.50
2023-02-25T23:06:12.600Z,0.50
2023-02-25T23:08:39.497Z,0.60
2023-02-25T23:11:15.506Z,0.60
2023-02-25T23:13:48.501Z,0.60
2023-02-25T23:19:22.715Z,0.50
2023-02-25T23:21:49.667Z,0.50
2023-02-25T23:24:19.652Z,0.50
2023-02-25T23:26:50.243Z,0.50
2023-02-25T23:29:17.227Z,0.50
2023-02-25T23:31:47.090Z,0.60
2023-02-25T23:34:23.616Z,0.50
2023-02-25T23:36:50.818Z,0.50
2023-02-25T23:39:18.335Z,0.50
2023-02-25T23:41:45.559Z,0.50
2023-02-25T23:44:13.396Z,0.50
2023-02-25T23:46:43.039Z,0.50
2023-02-25T23:49:12.601Z,0.50
2023-02-25T23:51:43.619Z,0.50
2023-02-25T23:54:13.651Z,0.50
2023-02-25T23:56:40.618Z,0.50
2023-02-25T23:59:08.885Z,0.40
